Time;durP1;ratioP1;P1;durP2;ratioP2;P2;SDS_P1;SDS_P2;PMS_P1;PMS_P2;Temp;Humidity;BMP_temperature;BMP_pressure;BME280_temperature;BME280_humidity;BME280_pressure;Samples;Min_cycle;Max_cycle;Signal;HPM_P1;HPM_P2
2021/03/29 00:00:19;;;;;;;6.15;0.98;;;8.00;99.90;;;;;;5046413;28;20090;-78
2021/03/29 00:02:46;;;;;;;8.45;1.15;;;7.90;99.90;;;;;;5046445;28;20048;-78
2021/03/29 00:05:33;;;;;;;8.50;1.48;;;7.80;99.90;;;;;;5046219;28;20038;-79
2021/03/29 00:08:07;;;;;;;9.73;3.83;;;7.90;99.90;;;;;;4953816;28;20054;-78
2021/03/29 00:10:35;;;;;;;11.27;3.88;;;7.90;99.90;;;;;;4986215;28;20090;-78
2021/03/29 00:13:02;;;;;;;8.95;4.22;;;7.80;99.90;;;;;;4986420;28;20106;-78
2021/03/29 00:15:31;;;;;;;9.27;3.20;;;7.90;99.90;;;;;;4986305;28;20035;-78
2021/03/29 00:17:57;;;;;;;10.35;3.15;;;7.80;99.90;;;;;;4950736;29;20036;-78
2021/03/29 00:20:27;;;;;;;6.47;2.33;;;7.80;99.90;;;;;;4966723;29;20070;-78
2021/03/29 00:22:55;;;;;;;8.85;3.15;;;7.70;99.90;;;;;;4966811;29;20063;-78
2021/03/29 00:25:22;;;;;;;6.30;2.13;;;7.80;99.90;;;;;;4966795;29;20059;-78
2021/03/29 00:27:48;;;;;;;9.48;2.83;;;7.80;99.90;;;;;;4966686;29;20027;-79
2021/03/29 00:30:17;;;;;;;9.45;2.42;;;7.70;99.90;;;;;;4966469;28;20035;-79
2021/03/29 00:32:44;;;;;;;14.45;3.38;;;7.80;99.90;;;;;;4966402;28;20058;-78
2021/03/29 00:35:12;;;;;;;9.52;2.90;;;7.70;99.90;;;;;;4966368;28;20031;-79
2021/03/29 00:37:41;;;;;;;6.60;2.50;;;7.80;99.90;;;;;;4966161;29;20027;-79
2021/03/29 00:40:08;;;;;;;6.55;1.50;;;7.80;99.90;;;;;;4966221;29;20450;-78
2021/03/29 00:42:35;;;;;;;4.43;1.25;;;7.70;99.90;;;;;;4966149;28;20119;-78
2021/03/29 00:45:02;;;;;;;8.60;1.65;;;7.70;99.90;;;;;;4989259;28;20113;-78
2021/03/29 00:47:28;;;;;;;5.35;1.40;;;7.70;99.90;;;;;;5009410;28;20060;-78
2021/03/29 00:49:54;;;;;;;8.23;1.27;;;7.60;99.90;;;;;;5042218;28;20050;-78
2021/03/29 00:52:20;;;;;;;4.65;1.20;;;7.60;99.90;;;;;;5043275;28;20079;-78
2021/03/29 00:54:47;;;;;;;8.05;1.60;;;7.70;99.90;;;;;;5045355;28;20029;-78
2021/03/29 00:57:14;;;;;;;5.68;1.38;;;7.60;99.90;;;;;;5028570;28;20557;-78
2021/03/29 00:59:41;;;;;;;9.73;2.08;;;7.60;99.90;;;;;;5045460;28;20025;-78
2021/03/29 01:02:06;;;;;;;6.45;1.00;;;7.60;99.90;;;;;;5028701;28;20494;-79
2021/03/29 01:04:32;;;;;;;6.85;1.38;;;7.60;99.90;;;;;;5045410;28;20033;-79
2021/03/29 01:06:59;;;;;;;6.60;1.85;;;7.60;99.90;;;;;;5044775;28;20497;-79
2021/03/29 01:09:27;;;;;;;8.70;1.35;;;7.60;99.90;;;;;;5044955;28;20037;-79
2021/03/29 01:11:56;;;;;;;5.07;1.52;;;7.60;99.90;;;;;;5045125;28;20060;-79
2021/03/29 01:14:37;;;;;;;6.93;2.07;;;7.60;99.90;;;;;;5028512;28;20033;-79
2021/03/29 01:17:06;;;;;;;5.20;1.42;;;7.80;99.90;;;;;;5044866;28;20037;-79
2021/03/29 01:19:41;;;;;;;6.95;1.90;;;7.70;99.90;;;;;;5028283;28;20033;-79
2021/03/29 01:22:08;;;;;;;7.70;1.40;;;7.70;99.90;;;;;;5045071;28;20060;-78
2021/03/29 01:25:01;;;;;;;12.13;2.05;;;7.80;99.90;;;;;;5061361;28;20033;-79
2021/03/29 01:27:47;;;;;;;5.35;1.63;;;7.70;99.90;;;;;;5028187;28;20116;-79
2021/03/29 01:30:14;;;;;;;4.20;1.55;;;7.60;99.90;;;;;;5044745;28;20033;-78
2021/03/29 01:32:43;;;;;;;9.80;2.05;;;7.50;99.90;;;;;;5028083;28;20474;-79
2021/03/29 01:35:13;;;;;;;4.18;1.38;;;7.50;99.90;;;;;;5028130;28;20056;-79
2021/03/29 01:37:41;;;;;;;9.10;1.50;;;7.50;99.90;;;;;;5044557;28;20026;-79
2021/03/29 01:40:07;;;;;;;8.50;1.95;;;7.50;99.90;;;;;;5045646;28;20029;-78
2021/03/29 01:42:34;;;;;;;9.13;2.22;;;7.50;99.90;;;;;;5045545;28;20371;-79
2021/03/29 01:45:01;;;;;;;7.45;1.80;;;7.60;99.90;;;;;;5044424;28;20025;-78
2021/03/29 01:47:27;;;;;;;11.23;2.47;;;7.60;99.90;;;;;;5061111;28;20034;-78
2021/03/29 01:49:53;;;;;;;10.25;2.45;;;7.70;99.90;;;;;;5044486;28;20084;-78
2021/03/29 01:52:19;;;;;;;12.15;2.20;;;7.60;99.90;;;;;;5044178;28;20486;-78
2021/03/29 01:54:46;;;;;;;9.82;2.60;;;7.50;99.90;;;;;;5045656;28;20083;-78
2021/03/29 01:57:11;;;;;;;9.77;2.63;;;7.50;99.90;;;;;;5045425;28;20471;-79
2021/03/29 01:59:38;;;;;;;9.73;2.28;;;7.60;99.90;;;;;;5045498;28;20025;-78
2021/03/29 02:02:06;;;;;;;7.75;1.83;;;7.60;99.90;;;;;;5044233;28;20048;-78
2021/03/29 02:04:33;;;;;;;13.88;2.40;;;7.40;99.90;;;;;;5044269;28;20414;-78
2021/03/29 02:07:01;;;;;;;6.80;2.72;;;7.50;99.90;;;;;;5045377;28;20410;-78
2021/03/29 02:09:28;;;;;;;7.70;1.95;;;7.50;99.90;;;;;;5026919;28;20097;-79
2021/03/29 02:11:54;;;;;;;6.32;1.92;;;7.50;99.90;;;;;;5044070;28;20133;-78
2021/03/29 02:14:24;;;;;;;12.15;2.50;;;7.50;99.90;;;;;;5044039;28;20034;-79
2021/03/29 02:16:49;;;;;;;5.80;2.08;;;7.50;99.90;;;;;;5044093;28;20029;-78
2021/03/29 02:19:16;;;;;;;9.38;2.70;;;7.50;99.90;;;;;;5060570;28;20041;-78
2021/03/29 02:21:43;;;;;;;7.53;2.20;;;7.50;99.90;;;;;;5044731;28;20076;-78
2021/03/29 02:24:11;;;;;;;9.13;2.72;;;7.50;99.90;;;;;;5062094;28;20532;-78
2021/03/29 02:26:39;;;;;;;10.93;2.53;;;7.50;99.90;;;;;;5045041;28;20029;-79
2021/03/29 02:29:06;;;;;;;7.88;2.90;;;7.40;99.90;;;;;;5061274;28;20076;-79
2021/03/29 02:31:32;;;;;;;13.40;3.90;;;7.40;99.90;;;;;;5060638;28;20029;-78
2021/03/29 02:34:01;;;;;;;7.10;2.90;;;7.60;99.90;;;;;;5043991;28;20381;-79
2021/03/29 02:36:27;;;;;;;7.13;3.10;;;7.60;99.90;;;;;;5027274;28;20029;-78
2021/03/29 02:38:54;;;;;;;7.07;2.63;;;7.50;99.90;;;;;;5043889;28;20094;-78
2021/03/29 02:41:25;;;;;;;13.68;4.10;;;7.40;99.90;;;;;;5060395;28;20037;-78
2021/03/29 02:43:52;;;;;;;12.20;5.30;;;7.40;99.90;;;;;;5045062;28;20045;-78
2021/03/29 02:46:21;;;;;;;9.65;2.95;;;7.50;99.90;;;;;;5043914;28;20029;-79
2021/03/29 02:48:49;;;;;;;10.13;3.33;;;7.40;99.90;;;;;;5043721;28;20036;-78
2021/03/29 02:51:16;;;;;;;10.82;3.05;;;7.40;99.90;;;;;;5043738;28;20052;-79
2021/03/29 02:53:55;;;;;;;8.77;2.45;;;7.30;99.90;;;;;;5027295;28;20040;-79
2021/03/29 02:56:27;;;;;;;6.70;2.27;;;7.40;99.90;;;;;;5045087;28;20047;-79
2021/03/29 02:58:55;;;;;;;10.32;2.50;;;7.30;99.90;;;;;;5043752;28;20500;-79
2021/03/29 03:01:25;;;;;;;4.85;2.55;;;7.30;99.90;;;;;;5043640;28;20029;-78
2021/03/29 03:03:53;;;;;;;8.15;3.13;;;7.30;99.90;;;;;;5043604;28;20135;-78
2021/03/29 03:06:21;;;;;;;10.30;3.38;;;7.30;99.90;;;;;;5043559;28;20076;-79
2021/03/29 03:08:47;;;;;;;9.25;3.08;;;7.30;99.90;;;;;;5045116;28;20029;-79
2021/03/29 03:11:13;;;;;;;9.07;3.25;;;7.30;99.90;;;;;;5043773;28;20048;-78
2021/03/29 03:13:41;;;;;;;8.82;2.75;;;7.30;99.90;;;;;;5043613;28;20037;-78
2021/03/29 03:16:07;;;;;;;9.23;2.60;;;7.40;99.90;;;;;;5043655;28;20034;-78
2021/03/29 03:18:33;;;;;;;6.65;2.50;;;7.30;99.90;;;;;;5060187;28;20037;-78
2021/03/29 03:20:58;;;;;;;8.85;2.50;;;7.40;99.90;;;;;;5062884;28;20030;-78
2021/03/29 03:23:24;;;;;;;9.75;2.22;;;7.50;99.90;;;;;;5047194;28;20245;-78
2021/03/29 03:25:52;;;;;;;7.45;2.25;;;7.60;99.90;;;;;;5047157;28;20109;-78
2021/03/29 03:28:23;;;;;;;11.45;2.38;;;7.60;99.90;;;;;;5047114;28;20128;-78
2021/03/29 03:30:54;;;;;;;7.75;1.25;;;7.60;99.90;;;;;;5030361;28;20037;-78
2021/03/29 03:33:25;;;;;;;6.53;1.40;;;7.50;99.90;;;;;;5047131;28;20037;-78
2021/03/29 03:35:52;;;;;;;4.88;1.27;;;7.60;99.90;;;;;;5063518;28;20022;-79
2021/03/29 03:38:22;;;;;;;8.55;1.52;;;7.70;99.90;;;;;;5063684;28;20101;-78
2021/03/29 03:40:57;;;;;;;5.47;1.38;;;7.80;99.90;;;;;;5063485;28;20362;-79
2021/03/29 03:43:25;;;;;;;6.95;1.63;;;7.80;99.90;;;;;;5063438;28;20049;-78
2021/03/29 03:46:08;;;;;;;5.70;1.17;;;7.80;99.90;;;;;;5030200;28;20033;-78
2021/03/29 03:48:36;;;;;;;12.40;1.73;;;7.90;99.90;;;;;;5030346;28;20116;-78
2021/03/29 03:51:02;;;;;;;5.47;1.33;;;8.00;99.90;;;;;;5063143;28;20029;-79
2021/03/29 03:53:29;;;;;;;7.85;1.55;;;8.00;99.90;;;;;;5048032;28;20036;-79
2021/03/29 03:55:57;;;;;;;7.88;0.98;;;8.00;99.90;;;;;;5046628;28;20220;-79
2021/03/29 03:58:24;;;;;;;5.75;1.30;;;7.90;99.90;;;;;;5046574;28;20041;-79
2021/03/29 04:00:50;;;;;;;6.03;1.48;;;7.90;99.90;;;;;;5046507;28;20497;-79
2021/03/29 04:03:16;;;;;;;7.40;1.40;;;7.90;99.90;;;;;;5046396;28;20053;-78
2021/03/29 04:05:42;;;;;;;5.15;1.38;;;7.80;99.90;;;;;;5046143;28;20029;-78
2021/03/29 04:08:09;;;;;;;5.47;1.42;;;7.70;99.90;;;;;;5046269;28;20188;-78
2021/03/29 04:10:38;;;;;;;7.15;1.05;;;7.80;99.90;;;;;;5046056;28;20037;-79
2021/03/29 04:13:08;;;;;;;5.63;1.20;;;7.70;99.90;;;;;;5046161;28;20109;-78
2021/03/29 04:15:34;;;;;;;4.18;0.70;;;7.60;99.90;;;;;;5046275;28;20119;-78
2021/03/29 04:18:00;;;;;;;3.75;1.13;;;7.60;99.90;;;;;;5042850;28;20034;-79
2021/03/29 04:20:26;;;;;;;7.20;2.00;;;7.60;99.90;;;;;;5042864;28;20026;-78
2021/03/29 04:22:51;;;;;;;4.15;1.17;;;7.70;99.90;;;;;;5026211;28;20405;-78
2021/03/29 04:25:17;;;;;;;8.35;1.35;;;7.80;99.90;;;;;;5026269;28;20034;-79
2021/03/29 04:27:42;;;;;;;8.00;1.33;;;7.90;99.90;;;;;;5026238;28;20034;-79
2021/03/29 04:30:11;;;;;;;7.55;1.27;;;8.00;99.90;;;;;;5025979;28;20082;-78
2021/03/29 04:32:38;;;;;;;7.65;1.52;;;8.10;99.90;;;;;;5025546;28;20030;-79
2021/03/29 04:35:04;;;;;;;8.45;1.83;;;8.00;99.90;;;;;;5026008;28;20541;-79
2021/03/29 04:37:29;;;;;;;9.35;1.35;;;8.00;99.90;;;;;;5042567;28;20033;-79
2021/03/29 04:39:55;;;;;;;8.23;1.33;;;8.10;99.90;;;;;;5027013;28;20052;-79
2021/03/29 04:42:21;;;;;;;7.10;1.40;;;8.00;99.90;;;;;;5027362;28;20056;-79
2021/03/29 04:44:46;;;;;;;8.45;1.70;;;8.10;99.90;;;;;;5042455;28;20131;-79
2021/03/29 04:47:12;;;;;;;8.60;1.83;;;8.20;99.90;;;;;;5042449;28;20609;-79
2021/03/29 04:49:38;;;;;;;5.78;1.10;;;8.10;99.90;;;;;;5026064;28;20552;-81
2021/03/29 04:52:04;;;;;;;7.07;1.27;;;8.10;99.90;;;;;;5058107;28;20071;-79
2021/03/29 04:54:30;;;;;;;5.93;1.48;;;8.20;99.90;;;;;;5047145;28;20505;-79
2021/03/29 04:56:56;;;;;;;6.25;1.27;;;8.20;99.90;;;;;;5045456;28;20037;-79
2021/03/29 04:59:22;;;;;;;8.10;2.30;;;8.30;99.90;;;;;;5041816;28;20029;-81
2021/03/29 05:01:48;;;;;;;7.90;1.35;;;8.30;99.90;;;;;;5045103;28;20029;-80
2021/03/29 05:04:14;;;;;;;5.78;1.23;;;8.40;99.90;;;;;;5028779;28;20044;-79
2021/03/29 05:06:40;;;;;;;5.25;1.00;;;8.30;99.90;;;;;;5044703;28;20041;-79
2021/03/29 05:09:09;;;;;;;7.05;1.13;;;8.30;99.90;;;;;;5061757;28;20053;-79
2021/03/29 05:11:46;;;;;;;4.63;1.20;;;8.30;99.90;;;;;;5046117;28;20038;-79
2021/03/29 05:14:13;;;;;;;7.97;1.17;;;8.30;99.90;;;;;;5044910;28;20033;-79
2021/03/29 05:16:40;;;;;;;7.93;1.00;;;8.40;99.90;;;;;;5027854;28;20029;-80
2021/03/29 05:19:06;;;;;;;7.75;1.10;;;8.30;99.90;;;;;;5046234;28;20069;-79
2021/03/29 05:21:31;;;;;;;6.22;1.00;;;8.20;99.90;;;;;;5041472;28;20034;-79
2021/03/29 05:24:00;;;;;;;4.63;1.52;;;8.20;99.90;;;;;;5041644;28;20046;-79
2021/03/29 05:26:26;;;;;;;9.48;1.73;;;8.30;99.90;;;;;;5041631;28;20029;-80
2021/03/29 05:28:52;;;;;;;6.10;1.98;;;8.40;99.90;;;;;;5040648;28;20026;-79
2021/03/29 05:31:17;;;;;;;7.50;1.90;;;8.30;99.90;;;;;;5023956;28;20026;-79
2021/03/29 05:33:43;;;;;;;3.83;0.90;;;8.20;99.90;;;;;;5040641;28;20034;-79
2021/03/29 05:36:12;;;;;;;6.65;0.93;;;8.20;99.90;;;;;;5024189;28;20029;-79
2021/03/29 05:38:40;;;;;;;6.10;1.03;;;8.20;99.90;;;;;;5040835;28;20033;-79
2021/03/29 05:41:05;;;;;;;5.32;0.85;;;8.30;99.90;;;;;;5030846;28;20034;-79
2021/03/29 05:43:32;;;;;;;5.22;0.93;;;8.30;99.90;;;;;;5026189;28;20041;-79
2021/03/29 05:45:58;;;;;;;2.58;0.80;;;8.40;99.90;;;;;;5043676;28;20036;-79
2021/03/29 05:48:24;;;;;;;4.43;0.90;;;8.30;99.90;;;;;;5043989;28;20127;-79
2021/03/29 05:50:50;;;;;;;5.70;1.35;;;8.30;99.90;;;;;;5060272;28;20031;-79
2021/03/29 05:53:15;;;;;;;2.75;0.73;;;8.40;99.90;;;;;;5043720;28;20288;-79
2021/03/29 05:55:43;;;;;;;4.03;0.60;;;8.40;99.90;;;;;;5027205;28;20033;-79
2021/03/29 06:00:46;;;;;;;5.25;0.60;;;8.60;99.90;;;;;;5044785;28;20032;-79
2021/03/29 06:03:21;;;;;;;6.68;0.90;;;8.60;99.90;;;;;;5059842;28;20061;-79
2021/03/29 06:05:48;;;;;;;8.95;1.08;;;8.70;99.90;;;;;;5044817;28;20481;-79
2021/03/29 06:08:14;;;;;;;9.07;1.10;;;8.70;99.90;;;;;;5043229;28;20054;-79
2021/03/29 06:10:44;;;;;;;8.63;0.85;;;8.70;99.90;;;;;;5059491;28;20036;-79
2021/03/29 06:13:23;;;;;;;3.10;0.80;;;8.70;99.90;;;;;;5043146;28;20037;-79
2021/03/29 06:16:04;;;;;;;4.20;0.70;;;8.80;99.90;;;;;;5042918;28;20041;-79
2021/03/29 06:18:29;;;;;;;4.85;0.65;;;8.90;99.90;;;;;;5007309;28;20038;-79
2021/03/29 06:21:04;;;;;;;4.40;0.75;;;8.90;99.90;;;;;;5023373;28;20042;-79
2021/03/29 06:23:30;;;;;;;6.15;1.13;;;9.00;99.90;;;;;;5040097;28;20065;-80
2021/03/29 06:26:16;;;;;;;3.47;1.05;;;9.10;99.90;;;;;;5007350;28;20026;-79
2021/03/29 06:28:42;;;;;;;6.22;1.10;;;9.20;99.90;;;;;;5023252;28;20034;-79
2021/03/29 06:31:31;;;;;;;8.00;1.23;;;9.10;99.90;;;;;;5039484;28;20045;-79
2021/03/29 06:33:59;;;;;;;8.80;1.23;;;9.20;99.90;;;;;;5024939;28;20038;-79
2021/03/29 06:36:36;;;;;;;5.03;0.85;;;9.20;99.90;;;;;;5039637;28;20026;-79
2021/03/29 06:39:14;;;;;;;7.65;0.90;;;9.30;99.90;;;;;;5039244;28;20052;-79
2021/03/29 06:41:40;;;;;;;5.03;1.00;;;9.30;99.90;;;;;;5026180;28;20406;-79
2021/03/29 06:44:07;;;;;;;7.80;1.80;;;9.40;99.90;;;;;;5024707;28;20038;-79
2021/03/29 06:46:33;;;;;;;5.43;1.15;;;9.40;99.90;;;;;;5023495;28;20030;-79
2021/03/29 06:49:00;;;;;;;17.50;1.83;;;9.50;99.90;;;;;;5023375;28;20041;-79
2021/03/29 06:51:34;;;;;;;4.43;1.00;;;9.50;99.90;;;;;;5034930;28;20026;-80
2021/03/29 06:54:08;;;;;;;4.10;1.10;;;9.60;99.90;;;;;;5043263;28;20064;-79
2021/03/29 06:56:39;;;;;;;5.70;1.23;;;9.60;99.90;;;;;;5047081;28;20085;-80
2021/03/29 06:59:04;;;;;;;5.95;1.25;;;9.70;99.90;;;;;;5046792;28;20280;-80
2021/03/29 07:01:45;;;;;;;6.45;1.23;;;9.70;99.90;;;;;;5046979;28;20033;-79
2021/03/29 07:04:10;;;;;;;5.07;0.70;;;9.80;99.90;;;;;;5046899;28;20048;-80
2021/03/29 07:06:37;;;;;;;6.43;0.70;;;9.80;99.90;;;;;;5046459;28;20034;-80
2021/03/29 07:09:06;;;;;;;6.57;0.75;;;9.70;99.90;;;;;;5046593;28;20109;-80
2021/03/29 07:11:33;;;;;;;3.45;0.70;;;9.80;99.90;;;;;;5046655;28;20433;-80
2021/03/29 07:14:00;;;;;;;5.88;0.82;;;9.80;99.90;;;;;;5046726;28;20057;-79
2021/03/29 07:16:27;;;;;;;7.18;0.80;;;9.90;99.90;;;;;;5046517;28;20037;-80
2021/03/29 07:18:58;;;;;;;3.28;0.95;;;10.00;99.90;;;;;;5062771;28;20030;-80
2021/03/29 07:21:24;;;;;;;4.28;0.80;;;10.10;99.90;;;;;;5046545;28;20037;-80
2021/03/29 07:23:51;;;;;;;4.05;0.85;;;10.30;99.90;;;;;;5062938;28;20069;-80
2021/03/29 07:26:22;;;;;;;6.72;0.90;;;10.50;99.90;;;;;;5046606;28;20034;-80
2021/03/29 07:28:48;;;;;;;4.82;0.80;;;10.60;99.90;;;;;;5046343;28;20037;-80
2021/03/29 07:31:38;;;;;;;6.72;1.23;;;10.70;99.90;;;;;;5029578;28;20519;-79
2021/03/29 07:34:04;;;;;;;3.90;1.13;;;10.70;99.90;;;;;;5052673;28;20477;-79
2021/03/29 07:36:45;;;;;;;8.35;1.13;;;10.80;99.90;;;;;;5059928;28;20294;-81
2021/03/29 07:39:13;;;;;;;6.80;1.08;;;10.90;99.90;;;;;;5066004;28;20498;-79
2021/03/29 07:41:39;;;;;;;4.22;1.27;;;11.00;99.90;;;;;;5066269;28;20025;-80
2021/03/29 07:44:12;;;;;;;7.10;1.45;;;11.00;99.90;;;;;;5049418;28;20422;-80
2021/03/29 07:46:39;;;;;;;6.55;0.90;;;11.10;99.90;;;;;;5066202;28;20029;-80
2021/03/29 07:49:44;;;;;;;5.40;0.80;;;11.10;99.90;;;;;;5065575;28;20048;-80
2021/03/29 07:52:34;;;;;;;6.03;1.05;;;11.30;99.90;;;;;;5032844;28;20040;-79
2021/03/29 07:55:04;;;;;;;5.63;0.90;;;11.40;99.90;;;;;;5045872;28;20026;-80
2021/03/29 07:57:45;;;;;;;4.53;1.00;;;11.50;99.90;;;;;;5045949;28;20034;-80
2021/03/29 08:00:30;;;;;;;7.90;1.10;;;11.50;99.90;;;;;;5045592;28;20030;-80
2021/03/29 08:02:57;;;;;;;6.28;1.02;;;11.70;99.90;;;;;;5036227;28;20053;-80
2021/03/29 08:05:42;;;;;;;4.72;0.73;;;11.80;99.90;;;;;;5045494;28;20080;-80
2021/03/29 08:11:00;;;;;;;5.30;0.75;;;11.80;99.90;;;;;;4985595;28;20506;-80
2021/03/29 08:13:53;;;;;;;6.82;0.90;;;11.90;99.90;;;;;;4969567;28;20043;-81
2021/03/29 08:16:25;;;;;;;11.70;1.00;;;12.10;99.90;;;;;;4969387;28;20087;-80
2021/03/29 08:19:11;;;;;;;6.75;1.02;;;12.20;99.90;;;;;;4969025;28;20102;-81
2021/03/29 08:21:48;;;;;;;7.82;1.13;;;12.20;99.90;;;;;;4969243;28;20070;-80
2021/03/29 08:24:19;;;;;;;6.38;1.17;;;12.40;99.90;;;;;;4969169;28;20049;-80
2021/03/29 08:26:45;;;;;;;5.75;0.80;;;12.60;99.90;;;;;;4968908;28;20104;-81
2021/03/29 08:29:21;;;;;;;4.60;0.80;;;12.80;99.90;;;;;;4985039;28;20046;-80
2021/03/29 08:32:17;;;;;;;3.08;0.70;;;12.70;99.90;;;;;;4985119;28;20059;-80
2021/03/29 08:34:47;;;;;;;6.10;1.05;;;12.80;99.90;;;;;;4968922;28;20109;-81
2021/03/29 08:37:26;;;;;;;5.18;1.33;;;12.90;99.90;;;;;;4969301;28;20122;-81
2021/03/29 08:39:53;;;;;;;4.43;0.93;;;13.00;99.90;;;;;;4968324;28;20150;-81
2021/03/29 08:42:22;;;;;;;8.27;0.93;;;13.00;99.90;;;;;;4968671;28;20042;-81
2021/03/29 08:44:50;;;;;;;3.67;0.63;;;13.30;99.90;;;;;;5003915;28;20124;-80
2021/03/29 08:47:19;;;;;;;4.18;0.60;;;13.30;99.90;;;;;;5028492;28;20033;-80
2021/03/29 08:49:48;;;;;;;5.00;0.73;;;13.30;99.90;;;;;;5044587;28;20192;-81
2021/03/29 08:52:14;;;;;;;5.72;0.77;;;13.30;99.90;;;;;;5044851;28;20055;-80
2021/03/29 08:54:55;;;;;;;3.58;0.60;;;13.50;99.90;;;;;;5028124;28;20045;-81
2021/03/29 08:57:23;;;;;;;4.30;1.15;;;13.60;99.90;;;;;;5044742;28;20033;-81
2021/03/29 08:59:58;;;;;;;5.72;0.80;;;13.60;99.90;;;;;;5044925;28;20124;-80
2021/03/29 09:02:24;;;;;;;5.68;0.80;;;13.70;99.90;;;;;;5044607;28;20540;-80
2021/03/29 09:04:58;;;;;;;4.65;0.88;;;13.90;99.90;;;;;;5027864;28;20417;-80
2021/03/29 09:07:32;;;;;;;5.60;1.10;;;13.90;99.90;;;;;;5044496;28;20045;-80
2021/03/29 09:09:58;;;;;;;4.00;0.90;;;13.80;99.90;;;;;;5045781;28;20034;-80
2021/03/29 09:12:29;;;;;;;7.18;1.08;;;14.20;99.90;;;;;;5044594;28;20036;-80
2021/03/29 09:14:56;;;;;;;6.60;0.80;;;14.10;99.90;;;;;;5045735;28;20033;-80
2021/03/29 09:17:31;;;;;;;5.25;0.88;;;14.30;99.90;;;;;;5044156;28;20047;-80
2021/03/29 09:19:57;;;;;;;4.85;0.65;;;14.40;99.90;;;;;;5060893;28;20056;-80
2021/03/29 09:22:35;;;;;;;6.97;1.00;;;14.50;99.90;;;;;;5044458;28;20041;-80
2021/03/29 09:25:03;;;;;;;5.82;1.13;;;14.50;99.90;;;;;;5044351;28;20037;-80
2021/03/29 09:27:33;;;;;;;5.15;0.70;;;14.40;99.90;;;;;;5044496;28;20095;-80
2021/03/29 09:30:01;;;;;;;9.25;1.13;;;14.50;99.90;;;;;;5044226;28;20040;-80
2021/03/29 09:32:30;;;;;;;4.90;0.73;;;14.50;99.90;;;;;;5045684;28;20056;-80
2021/03/29 09:34:56;;;;;;;3.13;0.63;;;14.90;99.90;;;;;;5043842;28;20033;-80
2021/03/29 09:37:27;;;;;;;5.72;0.68;;;15.10;99.90;;;;;;5044074;28;20040;-80
2021/03/29 09:40:01;;;;;;;6.93;0.80;;;15.10;99.90;;;;;;5044101;28;20576;-80
2021/03/29 09:42:44;;;;;;;5.35;0.80;;;15.10;99.90;;;;;;5044061;28;20398;-80
2021/03/29 09:45:30;;;;;;;6.38;1.63;;;14.60;99.90;;;;;;5044037;28;20211;-80
2021/03/29 09:48:10;;;;;;;9.90;0.80;;;14.90;99.90;;;;;;5044038;28;20303;-80
2021/03/29 09:50:44;;;;;;;7.65;1.10;;;15.00;99.90;;;;;;5043676;28;20131;-80
2021/03/29 09:53:18;;;;;;;4.82;0.80;;;15.20;99.90;;;;;;5043881;28;20036;-80
2021/03/29 09:55:47;;;;;;;6.57;0.85;;;15.10;99.90;;;;;;5043771;28;20066;-80
2021/03/29 09:58:35;;;;;;;6.28;0.82;;;15.20;99.90;;;;;;5027349;28;20029;-80
2021/03/29 10:01:03;;;;;;;5.70;0.90;;;15.20;99.90;;;;;;5043830;28;20044;-80
2021/03/29 10:03:29;;;;;;;6.22;0.70;;;15.40;99.90;;;;;;5043813;28;20049;-80
2021/03/29 10:05:55;;;;;;;3.55;0.70;;;15.60;99.90;;;;;;5043325;28;20029;-80
2021/03/29 10:08:33;;;;;;;4.32;0.70;;;15.90;99.90;;;;;;5043321;28;20480;-80
2021/03/29 10:11:04;;;;;;;3.90;0.65;;;15.90;99.90;;;;;;5043475;28;20026;-80
2021/03/29 10:13:39;;;;;;;6.18;0.50;;;15.90;99.90;;;;;;5043472;28;20025;-80
2021/03/29 10:16:27;;;;;;;8.68;0.70;;;16.00;99.90;;;;;;5043478;28;20029;-80
2021/03/29 10:19:07;;;;;;;5.80;0.77;;;15.90;99.90;;;;;;5043488;28;20029;-80
2021/03/29 10:21:34;;;;;;;4.80;1.13;;;15.80;99.90;;;;;;5043323;28;20428;-81
2021/03/29 10:24:10;;;;;;;5.22;0.77;;;15.70;99.90;;;;;;5043505;28;20068;-80
2021/03/29 10:26:38;;;;;;;3.88;0.68;;;15.60;99.90;;;;;;5043356;28;20060;-80
2021/03/29 10:29:06;;;;;;;2.60;0.73;;;15.80;99.90;;;;;;5043320;28;20380;-80
2021/03/29 10:31:34;;;;;;;7.63;0.93;;;16.00;99.90;;;;;;5047263;28;20482;-80
2021/03/29 10:34:00;;;;;;;3.95;0.85;;;16.00;99.90;;;;;;5064161;28;20037;-81
2021/03/29 10:36:28;;;;;;;4.53;0.80;;;16.00;99.90;;;;;;5063622;28;20033;-80
2021/03/29 10:38:55;;;;;;;2.90;0.73;;;15.90;99.90;;;;;;5048568;28;20368;-81
2021/03/29 10:41:21;;;;;;;5.85;0.75;;;16.20;99.90;;;;;;5048585;28;20070;-81
2021/03/29 10:43:48;;;;;;;3.50;0.50;;;16.30;99.90;;;;;;5048517;28;20088;-80
2021/03/29 10:46:14;;;;;;;5.38;0.70;;;16.50;99.90;;;;;;5047053;28;20029;-80
2021/03/29 10:48:39;;;;;;;5.45;0.50;;;16.80;99.90;;;;;;5047075;28;20120;-81
2021/03/29 10:51:07;;;;;;;2.60;0.50;;;17.00;99.90;;;;;;5043907;28;20037;-80
2021/03/29 10:53:35;;;;;;;4.75;0.70;;;16.90;99.90;;;;;;5060411;28;20034;-81
2021/03/29 10:56:01;;;;;;;5.35;0.70;;;17.00;99.90;;;;;;5028507;28;20026;-80
2021/03/29 10:58:26;;;;;;;7.47;0.60;;;16.60;99.90;;;;;;5060072;28;20038;-81
2021/03/29 11:00:52;;;;;;;4.20;0.93;;;16.80;99.90;;;;;;5060710;28;20029;-81
2021/03/29 11:03:18;;;;;;;4.50;0.60;;;17.10;99.90;;;;;;5060075;28;20042;-81
2021/03/29 11:05:44;;;;;;;6.63;0.75;;;17.10;99.90;;;;;;5027124;28;20235;-81
2021/03/29 11:08:10;;;;;;;3.58;0.60;;;17.10;99.90;;;;;;5026678;28;20459;-80
2021/03/29 11:10:35;;;;;;;2.63;0.57;;;17.20;99.90;;;;;;5060167;28;20048;-81
2021/03/29 11:13:02;;;;;;;3.80;1.00;;;17.50;99.90;;;;;;5026737;28;20124;-80
2021/03/29 11:15:29;;;;;;;5.28;0.60;;;17.30;99.90;;;;;;5043351;28;20030;-81
2021/03/29 11:17:55;;;;;;;4.75;0.60;;;17.30;99.90;;;;;;5063251;28;20045;-80
2021/03/29 11:20:21;;;;;;;3.50;0.60;;;17.60;99.90;;;;;;5065276;28;20116;-81
2021/03/29 11:22:47;;;;;;;3.00;0.75;;;17.50;99.90;;;;;;5048025;28;20064;-81
2021/03/29 11:25:14;;;;;;;4.72;0.60;;;17.40;99.90;;;;;;5063701;28;20030;-80
2021/03/29 11:27:40;;;;;;;4.72;0.60;;;17.40;99.50;;;;;;5046379;28;20059;-81
2021/03/29 11:30:13;;;;;;;3.60;0.60;;;17.80;99.90;;;;;;5063366;28;20038;-81
2021/03/29 11:32:40;;;;;;;4.93;0.70;;;18.00;99.90;;;;;;5046367;28;20048;-80
2021/03/29 11:35:07;;;;;;;4.55;0.80;;;18.00;99.40;;;;;;5047475;28;20033;-81
2021/03/29 11:37:33;;;;;;;5.15;0.50;;;17.70;99.90;;;;;;5062887;28;20021;-81
2021/03/29 11:39:58;;;;;;;3.58;0.45;;;18.00;99.90;;;;;;5046188;28;20073;-80
2021/03/29 11:42:24;;;;;;;3.40;0.40;;;18.00;99.90;;;;;;5046062;28;20045;-81
2021/03/29 11:44:50;;;;;;;3.50;0.40;;;18.30;99.90;;;;;;5046121;28;20033;-81
2021/03/29 11:47:16;;;;;;;2.83;0.60;;;18.50;99.90;;;;;;5045996;28;20030;-81
2021/03/29 11:49:42;;;;;;;5.07;0.65;;;18.70;99.90;;;;;;5045891;28;20029;-82
2021/03/29 11:52:07;;;;;;;2.58;0.60;;;18.80;99.20;;;;;;5047072;28;20040;-81
2021/03/29 11:54:33;;;;;;;3.22;0.57;;;18.40;98.60;;;;;;5045769;28;20037;-80
2021/03/29 11:56:59;;;;;;;4.07;0.52;;;18.50;98.70;;;;;;5046256;28;20071;-80
2021/03/29 11:59:26;;;;;;;4.45;0.70;;;18.60;99.00;;;;;;5045825;28;20037;-80
2021/03/29 12:02:09;;;;;;;4.53;0.70;;;18.20;95.40;;;;;;5039589;28;20430;-80
2021/03/29 12:04:49;;;;;;;4.05;0.93;;;18.20;95.80;;;;;;5025803;28;20042;-81
2021/03/29 12:07:32;;;;;;;6.03;0.65;;;18.30;95.70;;;;;;5025657;28;20038;-81
2021/03/29 12:12:44;;;;;;;2.72;0.50;;;18.40;93.80;;;;;;5026261;28;20022;-81
2021/03/29 12:15:14;;;;;;;4.70;0.57;;;18.80;97.10;;;;;;5025842;28;20442;-81
2021/03/29 12:17:42;;;;;;;4.97;0.70;;;18.60;96.10;;;;;;5040483;28;20084;-81
2021/03/29 12:20:12;;;;;;;4.05;0.60;;;18.60;97.10;;;;;;5045381;28;20040;-82
2021/03/29 12:22:38;;;;;;;3.25;0.63;;;18.70;92.80;;;;;;5029236;28;20083;-81
2021/03/29 12:25:05;;;;;;;3.35;0.50;;;18.40;93.90;;;;;;5045444;28;20533;-82
2021/03/29 12:27:31;;;;;;;3.17;0.70;;;18.60;95.90;;;;;;5061994;28;20167;-82
2021/03/29 12:30:03;;;;;;;5.93;0.50;;;18.80;95.60;;;;;;5044674;28;20040;-81
2021/03/29 12:32:29;;;;;;;4.70;0.70;;;18.90;94.50;;;;;;5061880;28;20029;-82
2021/03/29 12:34:58;;;;;;;4.60;0.52;;;18.80;93.50;;;;;;5045054;28;20049;-82
2021/03/29 12:37:28;;;;;;;1.75;0.40;;;19.00;94.00;;;;;;5045265;28;20100;-82
2021/03/29 12:42:28;;;;;;;3.33;0.45;;;19.70;93.40;;;;;;5045024;28;20038;-82
2021/03/29 12:44:55;;;;;;;5.15;0.73;;;19.50;92.40;;;;;;5044942;28;20120;-81
2021/03/29 12:47:30;;;;;;;3.45;0.75;;;19.10;91.40;;;;;;5044971;28;20063;-82
2021/03/29 12:50:08;;;;;;;3.70;0.70;;;19.20;91.70;;;;;;5044783;28;20048;-81
2021/03/29 12:52:35;;;;;;;11.52;0.63;;;19.20;90.10;;;;;;5044680;28;20037;-81
2021/03/29 12:55:02;;;;;;;3.67;0.50;;;19.50;93.20;;;;;;5044844;28;20084;-81
2021/03/29 12:57:28;;;;;;;1.67;0.50;;;19.60;90.90;;;;;;5044794;28;20101;-82
2021/03/29 12:59:54;;;;;;;2.53;0.40;;;19.40;89.30;;;;;;5044405;28;20036;-82
2021/03/29 13:02:20;;;;;;;4.10;0.40;;;19.60;90.40;;;;;;5044700;28;20040;-82
2021/03/29 13:04:48;;;;;;;3.28;0.40;;;19.70;87.40;;;;;;5044960;28;20026;-82
2021/03/29 13:12:10;;;;;;;1.98;0.30;;;19.80;85.00;;;;;;5046044;28;20048;-82
2021/03/29 13:14:45;;;;;;;3.20;0.40;;;20.10;90.50;;;;;;5043940;28;20040;-82
2021/03/29 13:17:10;;;;;;;3.00;0.60;;;20.00;84.10;;;;;;5043899;28;20034;-83
2021/03/29 13:19:36;;;;;;;5.22;0.90;;;19.70;81.70;;;;;;5060990;28;20032;-81